createdAt,value
2023-05-14T00:01:33.009Z,100.00
2023-05-14T00:04:00.769Z,100.00
2023-05-14T00:06:27.948Z,100.00
2023-05-14T00:08:55.053Z,100.00
2023-05-14T00:11:22.355Z,100.00
2023-05-14T00:13:50.340Z,100.00
2023-05-14T00:16:17.442Z,100.00
2023-05-14T00:18:44.786Z,100.00
2023-05-14T00:21:12.068Z,100.00
2023-05-14T00:23:39.127Z,100.00
2023-05-14T00:26:06.470Z,100.00
2023-05-14T00:28:33.529Z,100.00
2023-05-14T00:31:00.624Z,100.00
2023-05-14T00:33:27.985Z,100.00
2023-05-14T00:35:55.016Z,100.00
2023-05-14T00:38:24.058Z,100.00
2023-05-14T00:40:51.988Z,100.00
2023-05-14T00:43:22.821Z,100.00
2023-05-14T00:45:51.704Z,100.00
2023-05-14T00:48:20.902Z,100.00
2023-05-14T00:50:49.682Z,100.00
2023-05-14T00:53:18.687Z,100.00
2023-05-14T00:55:48.724Z,100.00
2023-05-14T00:58:16.277Z,100.00
2023-05-14T01:00:43.336Z,100.00
2023-05-14T01:03:10.992Z,100.00
2023-05-14T01:06:03.594Z,100.00
2023-05-14T01:08:36.384Z,100.00
2023-05-14T01:11:11.470Z,100.00
2023-05-14T01:13:59.444Z,100.00
2023-05-14T01:16:28.903Z,100.00
2023-05-14T01:18:58.913Z,100.00
2023-05-14T01:21:40.957Z,100.00
2023-05-14T01:24:08.910Z,100.00
2023-05-14T01:26:36.900Z,100.00
2023-05-14T01:29:26.895Z,100.00
2023-05-14T01:31:57.415Z,100.00
2023-05-14T01:34:28.548Z,100.00
2023-05-14T01:36:57.790Z,100.00
2023-05-14T01:39:26.749Z,100.00
2023-05-14T01:41:55.464Z,100.00
2023-05-14T01:44:23.328Z,100.00
2023-05-14T01:46:50.450Z,100.00
2023-05-14T01:49:18.639Z,100.00
2023-05-14T01:51:46.103Z,100.00
2023-05-14T01:54:13.214Z,100.00
2023-05-14T01:56:40.338Z,100.00
2023-05-14T01:59:07.811Z,100.00
2023-05-14T02:01:35.169Z,100.00
2023-05-14T02:04:02.684Z,100.00
2023-05-14T02:06:29.919Z,100.00
2023-05-14T02:08:56.993Z,100.00
2023-05-14T02:11:24.549Z,100.00
2023-05-14T02:13:51.985Z,100.00
2023-05-14T02:16:19.426Z,100.00
2023-05-14T02:18:46.520Z,100.00
2023-05-14T02:21:13.961Z,100.00
2023-05-14T02:23:42.227Z,100.00
2023-05-14T02:26:10.822Z,100.00
2023-05-14T02:28:38.385Z,100.00
2023-05-14T02:31:05.559Z,100.00
2023-05-14T02:33:32.936Z,100.00
2023-05-14T02:36:00.552Z,100.00
2023-05-14T02:38:27.946Z,100.00
2023-05-14T02:40:56.847Z,100.00
2023-05-14T02:43:24.330Z,100.00
2023-05-14T02:45:52.388Z,100.00
2023-05-14T02:48:19.552Z,100.00
2023-05-14T02:50:47.008Z,100.00
2023-05-14T02:53:14.106Z,100.00
2023-05-14T02:55:41.408Z,100.00
2023-05-14T02:58:08.939Z,100.00
2023-05-14T03:00:36.189Z,100.00
2023-05-14T03:03:03.981Z,100.00
2023-05-14T03:05:31.770Z,100.00
2023-05-14T03:07:58.969Z,100.00
2023-05-14T03:10:26.262Z,100.00
2023-05-14T03:12:54.112Z,100.00
2023-05-14T03:15:21.208Z,100.00
2023-05-14T03:17:48.369Z,100.00
2023-05-14T03:20:16.050Z,100.00
2023-05-14T03:22:43.180Z,100.00
2023-05-14T03:25:10.272Z,100.00
2023-05-14T03:27:37.792Z,100.00
2023-05-14T03:30:05.792Z,100.00
2023-05-14T03:32:32.977Z,100.00
2023-05-14T03:35:00.547Z,100.00
2023-05-14T03:37:27.550Z,100.00
2023-05-14T03:39:54.617Z,100.00
2023-05-14T03:42:22.051Z,100.00
2023-05-14T03:44:49.081Z,100.00
2023-05-14T03:47:16.227Z,100.00
2023-05-14T03:49:43.588Z,100.00
2023-05-14T03:52:11.365Z,100.00
2023-05-14T03:54:38.687Z,100.00
2023-05-14T03:57:06.384Z,100.00
2023-05-14T03:59:33.547Z,100.00
2023-05-14T04:02:00.746Z,100.00
2023-05-14T04:04:28.215Z,100.00
2023-05-14T04:06:55.320Z,100.00
2023-05-14T04:09:23.368Z,100.00
2023-05-14T04:11:51.202Z,100.00
2023-05-14T04:14:18.303Z,100.00
2023-05-14T04:16:45.549Z,99.51
2023-05-14T04:19:13.021Z,99.69
2023-05-14T04:21:40.368Z,99.97
2023-05-14T04:24:07.799Z,99.88
2023-05-14T04:26:35.391Z,100.00
2023-05-14T04:29:03.443Z,100.00
2023-05-14T04:31:31.675Z,99.87
2023-05-14T04:33:59.142Z,100.00
2023-05-14T04:36:26.341Z,100.00
2023-05-14T04:38:53.404Z,99.19
2023-05-14T04:41:21.151Z,99.18
2023-05-14T04:43:50.156Z,99.78
2023-05-14T04:46:17.320Z,99.44
2023-05-14T04:48:44.701Z,100.00
2023-05-14T04:51:11.807Z,100.00
2023-05-14T04:53:38.869Z,99.75
2023-05-14T04:56:06.684Z,100.00
2023-05-14T04:58:35.074Z,99.63
2023-05-14T05:01:05.131Z,99.14
2023-05-14T05:03:32.841Z,98.96
2023-05-14T05:06:00.046Z,97.98
2023-05-14T05:08:27.116Z,98.86
2023-05-14T05:10:54.502Z,97.99
2023-05-14T05:13:21.635Z,98.59
2023-05-14T05:15:48.747Z,98.39
2023-05-14T05:18:16.121Z,98.24
2023-05-14T05:20:43.187Z,99.08
2023-05-14T05:23:10.270Z,97.83
2023-05-14T05:25:37.638Z,96.48
2023-05-14T05:28:04.867Z,96.66
2023-05-14T05:30:32.006Z,96.49
2023-05-14T05:32:59.440Z,96.21
2023-05-14T05:35:26.600Z,96.85
2023-05-14T05:37:53.816Z,96.94
2023-05-14T05:40:21.227Z,96.49
2023-05-14T05:42:48.378Z,96.47
2023-05-14T05:45:15.637Z,96.18
2023-05-14T05:47:43.086Z,97.39
2023-05-14T05:50:11.522Z,96.96
2023-05-14T05:52:39.451Z,95.90
2023-05-14T05:55:07.189Z,95.70
2023-05-14T05:57:34.338Z,97.26
2023-05-14T06:00:04.901Z,97.46
2023-05-14T06:02:41.186Z,95.88
2023-05-14T06:05:10.355Z,97.52
2023-05-14T06:07:37.671Z,96.91
2023-05-14T06:10:05.476Z,96.75
2023-05-14T06:12:32.904Z,98.17
2023-05-14T06:14:59.972Z,98.09
2023-05-14T06:17:27.260Z,98.98
2023-05-14T06:19:54.676Z,99.66
2023-05-14T06:22:21.821Z,99.33
2023-05-14T06:24:49.113Z,100.00
2023-05-14T06:27:16.925Z,100.00
2023-05-14T06:29:44.037Z,100.00
2023-05-14T06:32:14.253Z,100.00
2023-05-14T06:34:42.645Z,100.00
2023-05-14T06:37:10.456Z,100.00
2023-05-14T06:39:37.773Z,100.00
2023-05-14T06:42:05.528Z,100.00
2023-05-14T06:44:32.610Z,100.00
2023-05-14T06:46:59.772Z,100.00
2023-05-14T06:49:27.220Z,100.00
2023-05-14T06:51:54.508Z,100.00
2023-05-14T06:54:21.594Z,100.00
2023-05-14T06:56:49.034Z,100.00
2023-05-14T06:59:16.162Z,100.00
2023-05-14T07:01:43.582Z,100.00
2023-05-14T07:04:11.091Z,100.00
2023-05-14T07:06:38.256Z,100.00
2023-05-14T07:09:06.509Z,100.00
2023-05-14T07:11:34.096Z,99.56
2023-05-14T07:14:01.169Z,99.94
2023-05-14T07:16:28.361Z,100.00
2023-05-14T07:18:55.745Z,100.00
2023-05-14T07:21:22.885Z,98.92
2023-05-14T07:23:49.952Z,98.83
2023-05-14T07:26:17.361Z,98.10
2023-05-14T07:28:44.470Z,97.31
2023-05-14T07:31:11.582Z,96.32
2023-05-14T07:33:38.958Z,96.52
2023-05-14T07:36:06.653Z,93.27
2023-05-14T07:38:34.005Z,95.30
2023-05-14T07:41:01.369Z,95.59
2023-05-14T07:43:28.508Z,94.59
2023-05-14T07:45:56.518Z,94.74
2023-05-14T07:48:24.029Z,93.43
2023-05-14T07:50:51.954Z,91.59
2023-05-14T07:53:19.164Z,93.96
2023-05-14T07:55:48.422Z,91.95
2023-05-14T07:58:16.261Z,92.94
2023-05-14T08:00:43.372Z,93.48
2023-05-14T08:03:10.914Z,92.78
2023-05-14T08:05:38.088Z,94.13
2023-05-14T08:08:05.199Z,94.66
2023-05-14T08:10:32.620Z,94.20
2023-05-14T08:12:59.693Z,94.32
2023-05-14T08:15:27.931Z,95.24
2023-05-14T08:17:55.753Z,93.67
2023-05-14T08:20:24.220Z,94.01
2023-05-14T08:22:51.566Z,93.87
2023-05-14T08:25:19.024Z,95.46
2023-05-14T08:27:46.278Z,93.33
2023-05-14T08:30:13.761Z,94.17
2023-05-14T08:32:42.386Z,93.47
2023-05-14T08:35:09.767Z,94.60
2023-05-14T08:37:36.942Z,95.28
2023-05-14T08:40:04.650Z,97.99
2023-05-14T08:42:32.164Z,95.52
2023-05-14T08:45:05.798Z,96.58
2023-05-14T08:47:33.669Z,93.29
2023-05-14T08:50:06.541Z,93.48
2023-05-14T08:52:35.067Z,96.23
2023-05-14T08:55:05.744Z,96.21
2023-05-14T08:57:34.256Z,93.93
2023-05-14T09:00:08.324Z,93.75
2023-05-14T09:02:36.777Z,95.08
2023-05-14T09:05:04.421Z,95.78
2023-05-14T09:07:31.913Z,96.19
2023-05-14T09:09:59.403Z,96.99
2023-05-14T09:12:26.735Z,95.48
2023-05-14T09:14:53.998Z,95.36
2023-05-14T09:17:21.324Z,95.65
2023-05-14T09:19:53.107Z,96.05
2023-05-14T09:22:22.390Z,95.85
2023-05-14T09:25:04.526Z,96.85
2023-05-14T09:27:33.030Z,98.60
2023-05-14T09:30:12.089Z,97.44
2023-05-14T09:32:40.826Z,98.46
2023-05-14T09:35:17.793Z,99.84
2023-05-14T09:37:51.276Z,98.86
2023-05-14T09:40:21.029Z,99.17
2023-05-14T09:42:49.232Z,99.46
2023-05-14T09:45:16.950Z,100.00
2023-05-14T09:47:45.335Z,100.00
2023-05-14T09:50:12.766Z,100.00
2023-05-14T09:52:40.167Z,99.26
2023-05-14T09:55:08.274Z,100.00
2023-05-14T09:57:35.693Z,100.00
2023-05-14T10:00:03.025Z,100.00
2023-05-14T10:02:37.959Z,100.00
2023-05-14T10:05:07.017Z,100.00
2023-05-14T10:07:39.764Z,100.00
2023-05-14T10:10:09.071Z,100.00
2023-05-14T10:12:39.382Z,100.00
2023-05-14T10:15:16.672Z,100.00
2023-05-14T10:17:49.069Z,100.00
2023-05-14T10:20:17.691Z,100.00
2023-05-14T10:22:45.369Z,100.00
2023-05-14T10:25:12.960Z,98.41
2023-05-14T10:27:41.428Z,98.07
2023-05-14T10:30:13.683Z,97.02
2023-05-14T10:32:42.070Z,98.97
2023-05-14T10:35:22.812Z,100.00
2023-05-14T10:37:51.815Z,100.00
2023-05-14T10:40:19.397Z,100.00
2023-05-14T10:42:46.888Z,99.69
2023-05-14T10:45:15.562Z,100.00
2023-05-14T10:47:44.403Z,100.00
2023-05-14T10:50:14.123Z,100.00
2023-05-14T10:52:46.225Z,100.00
2023-05-14T10:55:15.777Z,100.00
2023-05-14T10:57:44.967Z,100.00
2023-05-14T11:00:14.027Z,100.00
2023-05-14T11:02:43.068Z,100.00
2023-05-14T11:05:11.670Z,100.00
2023-05-14T11:07:44.612Z,100.00
2023-05-14T11:10:14.349Z,100.00
2023-05-14T11:12:44.104Z,100.00
2023-05-14T11:15:14.013Z,100.00
2023-05-14T11:17:42.374Z,100.00
2023-05-14T11:20:10.057Z,100.00
2023-05-14T11:22:39.245Z,100.00
2023-05-14T11:25:07.429Z,100.00
2023-05-14T11:27:36.754Z,100.00
2023-05-14T11:30:04.733Z,100.00
2023-05-14T11:32:35.217Z,100.00
2023-05-14T11:35:02.545Z,100.00
2023-05-14T11:37:30.817Z,100.00
2023-05-14T11:40:01.117Z,100.00
2023-05-14T11:42:28.272Z,100.00
2023-05-14T11:44:55.657Z,100.00
2023-05-14T11:47:23.269Z,100.00
2023-05-14T11:49:50.295Z,100.00
2023-05-14T11:52:19.673Z,100.00
2023-05-14T11:54:47.010Z,100.00
2023-05-14T11:57:17.075Z,100.00
2023-05-14T11:59:45.339Z,100.00
2023-05-14T12:02:14.548Z,100.00
2023-05-14T12:04:42.856Z,100.00
2023-05-14T12:07:12.014Z,100.00
2023-05-14T12:09:49.357Z,100.00
2023-05-14T12:12:23.187Z,100.00
2023-05-14T12:14:51.049Z,100.00
2023-05-14T12:17:20.009Z,100.00
2023-05-14T12:19:50.144Z,100.00
2023-05-14T12:22:19.590Z,100.00
2023-05-14T12:24:57.892Z,100.00
2023-05-14T12:27:26.447Z,100.00
2023-05-14T12:30:16.811Z,100.00
2023-05-14T12:32:52.017Z,100.00
2023-05-14T12:35:21.482Z,100.00
2023-05-14T12:37:48.611Z,100.00
2023-05-14T12:40:15.614Z,100.00
2023-05-14T12:42:42.942Z,100.00
2023-05-14T12:45:10.375Z,100.00
2023-05-14T12:47:37.755Z,100.00
2023-05-14T12:50:06.160Z,100.00
2023-05-14T12:52:38.317Z,100.00
2023-05-14T12:55:08.966Z,100.00
2023-05-14T12:57:36.959Z,100.00
2023-05-14T13:00:07.118Z,100.00
2023-05-14T13:02:42.780Z,100.00
2023-05-14T13:05:11.712Z,100.00
2023-05-14T13:07:39.231Z,100.00
2023-05-14T13:10:06.932Z,100.00
2023-05-14T13:12:34.278Z,100.00
2023-05-14T13:15:01.781Z,100.00
2023-05-14T13:17:29.045Z,100.00
2023-05-14T13:19:56.151Z,100.00
2023-05-14T13:22:23.589Z,100.00
2023-05-14T13:24:50.871Z,100.00
2023-05-14T13:27:17.963Z,100.00
2023-05-14T13:29:45.469Z,100.00
2023-05-14T13:32:13.009Z,100.00
2023-05-14T13:34:40.197Z,100.00
2023-05-14T13:37:07.671Z,100.00
2023-05-14T13:39:34.752Z,100.00
2023-05-14T13:42:01.871Z,100.00
2023-05-14T13:44:29.486Z,100.00
2023-05-14T13:46:56.700Z,100.00
2023-05-14T13:49:23.864Z,100.00
2023-05-14T13:51:51.239Z,100.00
2023-05-14T13:54:18.360Z,100.00
2023-05-14T13:56:45.440Z,100.00
2023-05-14T13:59:12.905Z,100.00
2023-05-14T14:01:40.067Z,100.00
2023-05-14T14:04:07.458Z,100.00
2023-05-14T14:06:34.587Z,100.00
2023-05-14T14:09:01.835Z,100.00
2023-05-14T14:11:29.343Z,100.00
2023-05-14T14:13:56.456Z,100.00
2023-05-14T14:16:23.562Z,100.00
2023-05-14T14:18:50.929Z,100.00
2023-05-14T14:21:18.497Z,100.00
2023-05-14T14:23:46.784Z,100.00
2023-05-14T14:26:14.432Z,100.00
2023-05-14T14:28:41.620Z,100.00
2023-05-14T14:31:08.761Z,100.00
2023-05-14T14:33:36.321Z,100.00
2023-05-14T14:36:03.524Z,100.00
2023-05-14T14:38:30.534Z,100.00
2023-05-14T14:40:58.206Z,100.00
2023-05-14T14:43:25.237Z,100.00
2023-05-14T14:45:52.263Z,100.00
2023-05-14T14:48:34.036Z,100.00
2023-05-14T14:51:01.594Z,100.00
2023-05-14T14:53:28.977Z,100.00
2023-05-14T14:55:56.984Z,100.00
2023-05-14T14:58:24.802Z,100.00
2023-05-14T15:00:54.738Z,100.00
2023-05-14T15:03:22.399Z,100.00
2023-05-14T15:05:49.991Z,100.00
2023-05-14T15:08:17.454Z,100.00
2023-05-14T15:10:45.787Z,100.00
2023-05-14T15:13:12.842Z,100.00
2023-05-14T15:15:40.179Z,100.00
2023-05-14T15:18:10.218Z,100.00
2023-05-14T15:20:37.687Z,100.00
2023-05-14T15:23:05.120Z,100.00
2023-05-14T15:25:32.208Z,100.00
2023-05-14T15:27:59.369Z,100.00
2023-05-14T15:30:26.791Z,100.00
2023-05-14T15:32:53.923Z,100.00
2023-05-14T15:35:21.009Z,100.00
2023-05-14T15:37:48.289Z,100.00
2023-05-14T15:40:15.457Z,100.00
2023-05-14T15:42:43.867Z,100.00
2023-05-14T15:45:12.825Z,100.00
2023-05-14T15:47:41.057Z,100.00
2023-05-14T15:50:08.616Z,100.00
2023-05-14T15:52:36.535Z,100.00
2023-05-14T15:55:05.142Z,100.00
2023-05-14T15:57:32.407Z,100.00
2023-05-14T16:00:00.018Z,100.00
2023-05-14T16:02:30.293Z,100.00
2023-05-14T16:04:57.852Z,100.00
2023-05-14T16:07:25.003Z,100.00
2023-05-14T16:09:52.107Z,100.00
2023-05-14T16:12:19.490Z,100.00
2023-05-14T16:14:46.602Z,100.00
2023-05-14T16:17:13.774Z,100.00
2023-05-14T16:19:41.718Z,100.00
2023-05-14T16:22:08.805Z,100.00
2023-05-14T16:24:36.224Z,100.00
2023-05-14T16:27:03.989Z,100.00
2023-05-14T16:29:31.314Z,100.00
2023-05-14T16:31:58.714Z,100.00
2023-05-14T16:34:26.198Z,100.00
2023-05-14T16:36:53.509Z,100.00
2023-05-14T16:39:20.755Z,100.00
2023-05-14T16:41:51.146Z,100.00
2023-05-14T16:44:18.154Z,100.00
2023-05-14T16:46:45.238Z,100.00
2023-05-14T16:49:12.553Z,100.00
2023-05-14T16:51:43.036Z,100.00
2023-05-14T16:54:10.176Z,100.00
2023-05-14T16:56:37.658Z,100.00
2023-05-14T16:59:04.808Z,100.00
2023-05-14T17:01:32.379Z,100.00
2023-05-14T17:03:59.794Z,100.00
2023-05-14T17:06:26.912Z,100.00
2023-05-14T17:08:54.031Z,100.00
2023-05-14T17:11:21.457Z,100.00
2023-05-14T17:13:48.614Z,100.00
2023-05-14T17:16:16.133Z,100.00
2023-05-14T17:18:43.809Z,100.00
2023-05-14T17:21:11.011Z,100.00
2023-05-14T17:23:38.242Z,100.00
2023-05-14T17:26:05.752Z,100.00
2023-05-14T17:28:33.443Z,100.00
2023-05-14T17:31:00.575Z,100.00
2023-05-14T17:33:28.722Z,100.00
2023-05-14T17:35:56.109Z,100.00
2023-05-14T17:38:24.790Z,100.00
2023-05-14T17:40:52.216Z,100.00
2023-05-14T17:43:19.295Z,100.00
2023-05-14T17:45:53.906Z,100.00
2023-05-14T17:48:23.984Z,100.00
2023-05-14T17:50:54.538Z,100.00
2023-05-14T17:53:22.414Z,100.00
2023-05-14T17:55:50.189Z,100.00
2023-05-14T17:58:17.380Z,100.00
2023-05-14T18:00:44.829Z,100.00
2023-05-14T18:03:14.197Z,100.00
2023-05-14T18:05:41.425Z,100.00
2023-05-14T18:08:09.547Z,100.00
2023-05-14T18:10:37.052Z,100.00
2023-05-14T18:13:06.618Z,100.00
2023-05-14T18:15:33.696Z,100.00
2023-05-14T18:18:01.134Z,100.00
2023-05-14T18:20:28.189Z,100.00
2023-05-14T18:22:55.149Z,100.00
2023-05-14T18:25:22.707Z,100.00
2023-05-14T18:27:50.126Z,100.00
2023-05-14T18:30:17.253Z,100.00
2023-05-14T18:32:45.079Z,100.00
2023-05-14T18:35:13.708Z,100.00
2023-05-14T18:37:41.243Z,100.00
2023-05-14T18:40:09.200Z,100.00
2023-05-14T18:42:36.368Z,100.00
2023-05-14T18:45:04.168Z,100.00
2023-05-14T18:47:32.770Z,100.00
2023-05-14T18:50:01.800Z,100.00
2023-05-14T18:52:29.391Z,100.00
2023-05-14T18:54:56.876Z,100.00
2023-05-14T18:57:25.619Z,100.00
2023-05-14T18:59:52.814Z,100.00
2023-05-14T19:02:20.454Z,100.00
2023-05-14T19:04:53.016Z,100.00
2023-05-14T19:07:21.355Z,100.00
2023-05-14T19:09:49.174Z,100.00
2023-05-14T19:12:16.293Z,100.00
2023-05-14T19:14:43.823Z,100.00
2023-05-14T19:17:11.355Z,100.00
2023-05-14T19:19:39.321Z,100.00
2023-05-14T19:22:06.855Z,100.00
2023-05-14T19:24:34.165Z,100.00
2023-05-14T19:27:01.295Z,100.00
2023-05-14T19:29:28.792Z,100.00
2023-05-14T19:31:56.033Z,100.00
2023-05-14T19:34:23.234Z,100.00
2023-05-14T19:36:50.810Z,100.00
2023-05-14T19:39:17.883Z,100.00
2023-05-14T19:41:45.091Z,100.00
2023-05-14T19:44:12.494Z,100.00
2023-05-14T19:46:39.697Z,100.00
2023-05-14T19:49:06.856Z,100.00
2023-05-14T19:51:34.267Z,100.00
2023-05-14T19:54:01.356Z,100.00
2023-05-14T19:56:28.517Z,100.00
2023-05-14T19:58:55.932Z,100.00
2023-05-14T20:01:23.142Z,100.00
2023-05-14T20:03:50.625Z,100.00
2023-05-14T20:06:18.441Z,100.00
2023-05-14T20:08:45.666Z,100.00
2023-05-14T20:11:14.861Z,100.00
2023-05-14T20:13:42.006Z,100.00
2023-05-14T20:16:09.197Z,100.00
2023-05-14T20:18:36.770Z,100.00
2023-05-14T20:21:04.101Z,100.00
2023-05-14T20:23:32.283Z,100.00
2023-05-14T20:26:01.856Z,100.00
2023-05-14T20:28:29.078Z,100.00
2023-05-14T20:30:58.771Z,100.00
2023-05-14T20:33:27.082Z,100.00
2023-05-14T20:35:54.138Z,100.00
2023-05-14T20:38:21.713Z,100.00
2023-05-14T20:40:49.239Z,100.00
2023-05-14T20:43:16.406Z,100.00
2023-05-14T20:45:43.526Z,100.00
2023-05-14T20:48:12.876Z,100.00
2023-05-14T20:50:39.940Z,100.00
2023-05-14T20:53:07.091Z,100.00
2023-05-14T20:55:34.578Z,100.00
2023-05-14T20:58:01.758Z,100.00
2023-05-14T21:00:28.832Z,100.00
2023-05-14T21:02:56.683Z,100.00
2023-05-14T21:05:24.234Z,100.00
2023-05-14T21:07:51.628Z,100.00
2023-05-14T21:10:19.057Z,100.00
2023-05-14T21:12:46.143Z,100.00
2023-05-14T21:15:13.276Z,100.00
2023-05-14T21:17:40.840Z,100.00
2023-05-14T21:20:08.497Z,100.00
2023-05-14T21:22:35.632Z,100.00
2023-05-14T21:25:03.344Z,100.00
2023-05-14T21:27:30.578Z,100.00
2023-05-14T21:29:57.637Z,100.00
2023-05-14T21:32:25.648Z,100.00
2023-05-14T21:34:52.804Z,100.00
2023-05-14T21:37:21.501Z,100.00
2023-05-14T21:39:48.896Z,100.00
2023-05-14T21:42:16.332Z,100.00
2023-05-14T21:44:43.428Z,100.00
2023-05-14T21:47:11.458Z,100.00
2023-05-14T21:49:38.526Z,100.00
2023-05-14T21:52:05.697Z,100.00
2023-05-14T21:54:33.049Z,100.00
2023-05-14T21:57:01.527Z,100.00
2023-05-14T21:59:28.565Z,100.00
2023-05-14T22:02:06.893Z,100.00
2023-05-14T22:04:35.355Z,100.00
2023-05-14T22:07:03.248Z,100.00
2023-05-14T22:09:30.552Z,100.00
2023-05-14T22:11:58.370Z,100.00
2023-05-14T22:14:27.282Z,100.00
2023-05-14T22:16:54.556Z,100.00
2023-05-14T22:19:22.409Z,100.00
2023-05-14T22:21:49.495Z,100.00
2023-05-14T22:24:16.485Z,100.00
2023-05-14T22:26:43.980Z,100.00
2023-05-14T22:29:11.028Z,100.00
2023-05-14T22:31:38.205Z,100.00
2023-05-14T22:34:05.559Z,100.00
2023-05-14T22:36:32.700Z,100.00
2023-05-14T22:38:59.697Z,100.00
2023-05-14T22:41:26.953Z,100.00
2023-05-14T22:43:54.035Z,100.00
2023-05-14T22:46:21.364Z,100.00
2023-05-14T22:48:49.317Z,100.00
2023-05-14T22:51:16.668Z,100.00
2023-05-14T22:53:43.858Z,100.00
2023-05-14T22:56:11.289Z,100.00
2023-05-14T22:58:38.325Z,100.00
2023-05-14T23:01:05.619Z,100.00
2023-05-14T23:03:32.896Z,100.00
2023-05-14T23:05:59.945Z,100.00
2023-05-14T23:08:27.001Z,100.00
2023-05-14T23:10:54.313Z,100.00
2023-05-14T23:13:21.277Z,100.00
2023-05-14T23:15:48.803Z,100.00
2023-05-14T23:18:16.122Z,100.00
2023-05-14T23:20:43.774Z,100.00
2023-05-14T23:23:11.287Z,100.00
2023-05-14T23:25:38.566Z,100.00
2023-05-14T23:28:05.664Z,100.00
2023-05-14T23:30:32.710Z,100.00
2023-05-14T23:33:00.216Z,100.00
2023-05-14T23:35:27.480Z,100.00
2023-05-14T23:37:55.563Z,100.00
2023-05-14T23:40:22.994Z,100.00
2023-05-14T23:42:50.594Z,100.00
2023-05-14T23:45:17.780Z,100.00
2023-05-14T23:47:45.414Z,100.00
2023-05-14T23:50:12.473Z,100.00
2023-05-14T23:52:39.521Z,100.00
2023-05-14T23:55:07.052Z,100.00
2023-05-14T23:57:34.062Z,100.00
